Overview Statistics Trail Chart Weather Telemetry Raw packets
 

This is the latest recevied weather packets stored in our database for station/object DF1GD-10. If no packets are shown the sender has not sent any weather packets the latest 10 day(s).

<< 3 4 5 6 7 8 9 >>
Time Temp. Humidity Pressure Rain* Wind** Luminosity Snow
1788596928 18.33° C 60% 1022.1 hPa - - - -
1788596028 18.33° C 61% 1021.9 hPa - - - -
1788595128 17.78° C 62% 1021.8 hPa - - - -
1788594227 17.22° C 64% 1021.7 hPa - - - -
1788593327 17.22° C 64% 1021.5 hPa - - - -
1788592427 16.67° C 65% 1021.4 hPa - - - -
1788591527 16.11° C 66% 1021.2 hPa - - - -
1788590626 16.11° C 67% 1021.1 hPa - - - -
1788589726 15.56° C 68% 1021.2 hPa - - - -
1788588826 15.56° C 68% 1020.7 hPa - - - -
1788587926 15° C 68% 1020.4 hPa - - - -
1788587026 15° C 71% 1020.2 hPa - - - -
1788586126 15.56° C 67% 1020 hPa - - - -
1788585225 15.56° C 68% 1020.1 hPa - - - -
1788584325 15° C 70% 1019.7 hPa - - - -
1788583425 15° C 67% 1019.5 hPa - - - -
1788582525 15.56° C 66% 1019.3 hPa - - - -
1788581625 15° C 72% 1019.5 hPa - - - -
1788580725 16.11° C 66% 1019.4 hPa - - - -
1788579825 15.56° C 65% 1019.2 hPa - - - -
1788578924 16.11° C 63% 1019.2 hPa - - - -
1788578024 16.11° C 64% 1019.2 hPa - - - -
1788577124 17.22° C 66% 1019 hPa - - - -
1788576224 17.22° C 67% 1019.3 hPa - - - -
1788575324 17.78° C 66% 1019.1 hPa - - - -

* Rain since midnight (hover to see other rain measurements)
** Current wind speed in m/s (hover to see current wind gust speed)